Time;durP1;ratioP1;P1;durP2;ratioP2;P2;SDS_P1;SDS_P2;PMS_P1;PMS_P2;Temp;Humidity;BMP_temperature;BMP_pressure;BME280_temperature;BME280_humidity;BME280_pressure;Samples;Min_cycle;Max_cycle;Signal;HPM_P1;HPM_P2
2022/04/14 00:02:10;;;;;;;5.63;3.97;;;;;;;12.83;100.00;101972.41;4974979;28;20313;-72
2022/04/14 00:04:36;;;;;;;6.90;3.50;;;;;;;12.20;100.00;101887.66;4973643;28;20193;-73
2022/04/14 00:07:02;;;;;;;5.20;3.80;;;;;;;12.86;100.00;101979.28;4967969;28;20198;-72
2022/04/14 00:09:28;;;;;;;5.80;3.70;;;;;;;12.77;100.00;101965.09;4972409;28;20670;-72
2022/04/14 00:11:54;;;;;;;6.63;4.57;;;;;;;12.45;100.00;101963.59;4966513;28;20434;-72
2022/04/14 00:14:20;;;;;;;6.63;3.57;;;;;;;12.61;100.00;101971.50;4973124;28;20449;-72
2022/04/14 00:16:45;;;;;;;4.20;3.80;;;;;;;12.67;100.00;101964.53;4974657;28;21052;-72
2022/04/14 00:19:11;;;;;;;6.17;3.73;;;;;;;12.95;100.00;101958.47;4972826;28;20244;-72
2022/04/14 00:21:36;;;;;;;5.70;3.80;;;;;;;12.66;100.00;101965.53;4976961;28;20272;-72
2022/04/14 00:24:02;;;;;;;7.50;3.90;;;;;;;12.49;100.00;101959.50;4974752;28;20302;-72
2022/04/14 00:26:27;;;;;;;8.70;5.30;;;;;;;12.70;100.00;101929.19;4978658;28;20568;-72
2022/04/14 00:28:53;;;;;;;5.83;4.60;;;;;;;12.65;100.00;101974.66;4978397;28;20277;-72
2022/04/14 00:31:18;;;;;;;6.30;4.60;;;;;;;12.36;100.00;101965.53;4976458;28;20185;-72
2022/04/14 00:33:44;;;;;;;5.10;3.77;;;;;;;12.37;100.00;101931.38;4966379;28;20335;-72
2022/04/14 00:36:09;;;;;;;5.43;4.43;;;;;;;12.50;100.00;101945.03;4972233;28;20257;-71
2022/04/14 00:38:34;;;;;;;6.57;3.83;;;;;;;12.73;100.00;101941.41;4975798;28;20221;-72
2022/04/14 00:41:00;;;;;;;4.30;3.87;;;;;;;12.21;100.00;101916.25;4975660;28;20194;-72
2022/04/14 00:43:33;;;;;;;5.93;4.10;;;;;;;12.19;100.00;101931.72;4977836;28;20748;-72
2022/04/14 00:46:00;;;;;;;5.93;4.40;;;;;;;12.29;100.00;101961.88;4975251;28;20229;-72
2022/04/14 00:48:26;;;;;;;6.43;4.27;;;;;;;12.32;100.00;101966.88;4975644;28;20450;-72
2022/04/14 00:50:51;;;;;;;6.83;4.57;;;;;;;12.61;100.00;101973.31;4976547;28;20444;-72
2022/04/14 00:53:17;;;;;;;6.73;4.23;;;;;;;12.17;100.00;101906.84;4976263;28;20519;-72
2022/04/14 00:55:42;;;;;;;6.27;4.37;;;;;;;12.82;100.00;101940.31;4979761;28;20556;-72
2022/04/14 00:58:08;;;;;;;5.77;4.20;;;;;;;13.40;100.00;101970.91;4980230;28;20635;-73
2022/04/14 01:00:33;;;;;;;5.40;4.33;;;;;;;13.36;100.00;101952.59;4977049;28;20225;-72
2022/04/14 01:02:59;;;;;;;5.40;3.87;;;;;;;13.14;100.00;101954.38;4976324;28;20213;-72
2022/04/14 01:05:26;;;;;;;5.57;3.67;;;;;;;12.81;100.00;101919.78;4975907;28;20221;-72
2022/04/14 01:07:52;;;;;;;8.20;4.07;;;;;;;13.12;100.00;101939.22;4977461;28;20452;-72
2022/04/14 01:10:18;;;;;;;4.97;3.80;;;;;;;12.92;100.00;101964.25;4977356;28;20460;-72
2022/04/14 01:12:43;;;;;;;5.23;3.77;;;;;;;13.00;100.00;101973.06;4972557;28;20473;-72
2022/04/14 01:15:12;;;;;;;6.93;4.30;;;;;;;12.86;100.00;101944.28;4976076;28;20659;-72
2022/04/14 01:17:39;;;;;;;7.37;4.23;;;;;;;13.27;100.00;101968.03;4976956;28;20198;-72
2022/04/14 01:20:06;;;;;;;5.93;4.37;;;;;;;13.34;100.00;101953.63;4976101;28;20479;-72
2022/04/14 01:22:35;;;;;;;7.30;4.10;;;;;;;13.30;100.00;101936.16;4975499;28;20477;-72
2022/04/14 01:25:01;;;;;;;7.97;4.70;;;;;;;13.18;100.00;101942.19;4973361;28;20581;-72
2022/04/14 01:27:28;;;;;;;6.07;3.90;;;;;;;13.03;100.00;101988.00;4976723;28;20441;-72
2022/04/14 01:29:53;;;;;;;8.77;4.70;;;;;;;13.07;100.00;101973.13;4974203;28;20433;-72
2022/04/14 01:32:19;;;;;;;7.00;4.40;;;;;;;13.17;100.00;101984.47;4980239;28;20502;-72
2022/04/14 01:34:45;;;;;;;6.63;4.30;;;;;;;12.89;100.00;101939.34;4972215;28;20287;-72
2022/04/14 01:37:11;;;;;;;5.57;4.40;;;;;;;13.02;100.00;101970.19;4973001;28;21050;-72
2022/04/14 01:39:36;;;;;;;5.63;4.30;;;;;;;13.04;100.00;101971.66;4972467;28;20198;-72
2022/04/14 01:42:02;;;;;;;7.43;5.40;;;;;;;13.07;100.00;101982.03;4975213;28;21033;-71
2022/04/14 01:44:27;;;;;;;8.90;5.23;;;;;;;13.08;100.00;101950.59;4971545;28;20232;-72
2022/04/14 01:46:52;;;;;;;6.77;5.20;;;;;;;13.16;100.00;101966.63;4976407;28;20225;-72
2022/04/14 01:49:18;;;;;;;7.10;5.87;;;;;;;13.06;100.00;101948.06;4980397;28;20182;-72
2022/04/14 01:51:43;;;;;;;10.97;6.53;;;;;;;12.85;100.00;101969.56;4979790;28;20265;-72
2022/04/14 01:54:09;;;;;;;9.70;6.23;;;;;;;12.84;100.00;101963.34;4978857;28;20194;-72
2022/04/14 01:56:34;;;;;;;8.70;6.30;;;;;;;13.11;100.00;101991.44;4976514;28;20186;-72
2022/04/14 01:59:00;;;;;;;8.50;6.60;;;;;;;13.38;100.00;101980.19;4982493;28;20237;-72
2022/04/14 02:01:25;;;;;;;8.40;6.47;;;;;;;12.62;100.00;101938.16;4979428;28;20193;-72
2022/04/14 02:03:51;;;;;;;8.80;6.77;;;;;;;12.88;100.00;101983.47;4974308;28;20303;-71
2022/04/14 02:06:16;;;;;;;6.87;5.27;;;;;;;12.46;100.00;101951.78;4974063;28;20272;-71
2022/04/14 02:08:43;;;;;;;7.17;5.97;;;;;;;12.89;100.00;101987.81;4978061;28;20186;-71
2022/04/14 02:11:13;;;;;;;8.07;6.23;;;;;;;12.81;100.00;101995.16;4981803;28;20190;-72
2022/04/14 02:13:39;;;;;;;11.10;6.97;;;;;;;13.11;100.00;101996.84;4976002;28;20547;-72
2022/04/14 02:16:05;;;;;;;10.20;7.27;;;;;;;12.97;100.00;101997.69;4973767;28;20547;-72
2022/04/14 02:18:31;;;;;;;7.87;6.83;;;;;;;12.87;100.00;102002.50;4976986;28;20220;-72
2022/04/14 02:20:56;;;;;;;11.80;7.10;;;;;;;12.81;100.00;101995.16;4980023;28;20524;-71
2022/04/14 02:23:22;;;;;;;11.20;7.57;;;;;;;12.69;100.00;101999.34;4978963;28;20556;-72
2022/04/14 02:25:48;;;;;;;12.07;9.13;;;;;;;12.58;100.00;101954.84;4975958;28;20761;-71
2022/04/14 02:28:14;;;;;;;12.37;8.23;;;;;;;12.84;100.00;101984.00;4978062;28;20441;-72
2022/04/14 02:30:40;;;;;;;12.47;9.00;;;;;;;12.21;100.00;101943.97;4976488;28;20185;-72
2022/04/14 02:33:05;;;;;;;11.07;8.73;;;;;;;12.35;100.00;101952.22;4976593;28;20467;-71
2022/04/14 02:35:31;;;;;;;12.07;8.70;;;;;;;12.72;100.00;101994.41;4976112;28;20444;-72
2022/04/14 02:37:57;;;;;;;9.67;8.67;;;;;;;12.78;100.00;101990.97;4976546;28;20204;-72
2022/04/14 02:40:26;;;;;;;9.63;7.80;;;;;;;12.89;100.00;101977.06;4977729;28;20209;-72
2022/04/14 02:42:56;;;;;;;12.17;9.33;;;;;;;12.63;100.00;101949.75;4973466;28;20969;-72
2022/04/14 02:45:26;;;;;;;12.20;9.93;;;;;;;12.59;100.00;101986.16;4978626;28;20452;-72
2022/04/14 02:47:52;;;;;;;11.43;9.60;;;;;;;12.46;100.00;101972.47;4979936;28;20445;-71
2022/04/14 02:50:20;;;;;;;13.00;9.30;;;;;;;12.53;100.00;101984.22;4980231;28;20448;-72
2022/04/14 02:52:46;;;;;;;14.47;9.90;;;;;;;11.94;100.00;101913.09;4976476;28;20479;-72
2022/04/14 02:55:11;;;;;;;11.10;9.70;;;;;;;12.15;100.00;101938.47;4969653;28;20437;-72
2022/04/14 02:57:36;;;;;;;11.50;10.30;;;;;;;12.71;100.00;101979.28;4976046;28;20277;-71
2022/04/14 03:00:09;;;;;;;14.87;10.60;;;;;;;12.55;100.00;101991.03;4974997;28;20218;-71
2022/04/14 03:02:35;;;;;;;11.23;9.80;;;;;;;12.32;100.00;101949.91;4979051;28;20241;-71
2022/04/14 03:05:02;;;;;;;13.43;10.03;;;;;;;12.55;100.00;101982.13;4974937;28;20473;-72
2022/04/14 03:07:27;;;;;;;14.47;10.47;;;;;;;12.14;100.00;101947.56;4976319;28;20194;-71
2022/04/14 03:09:53;;;;;;;12.70;10.83;;;;;;;12.69;100.00;101986.69;4977112;28;20437;-71
2022/04/14 03:12:18;;;;;;;12.50;10.30;;;;;;;12.09;100.00;101907.78;4980892;28;20217;-72
2022/04/14 03:14:43;;;;;;;11.97;10.23;;;;;;;12.47;100.00;101976.84;4976821;28;20192;-72
2022/04/14 03:17:09;;;;;;;14.53;10.13;;;;;;;12.12;100.00;101963.03;4975462;28;20549;-72
2022/04/14 03:19:34;;;;;;;14.40;10.60;;;;;;;12.12;100.00;101974.66;4978280;28;20209;-71
2022/04/14 03:22:00;;;;;;;15.10;11.30;;;;;;;12.34;100.00;101943.34;4976775;28;20213;-72
2022/04/14 03:24:25;;;;;;;14.87;11.53;;;;;;;12.25;100.00;101973.19;4976995;28;20604;-72
2022/04/14 03:26:51;;;;;;;15.73;11.73;;;;;;;11.77;100.00;101838.97;4974257;28;20407;-72
2022/04/14 03:29:16;;;;;;;15.50;11.10;;;;;;;12.58;100.00;101981.78;4977509;28;20209;-72
2022/04/14 03:31:42;;;;;;;14.27;11.57;;;;;;;12.25;100.00;101967.81;4975897;28;20448;-71
2022/04/14 03:34:07;;;;;;;16.43;12.10;;;;;;;12.43;100.00;101982.59;4973765;28;20201;-72
2022/04/14 03:36:32;;;;;;;13.47;11.47;;;;;;;12.18;100.00;101947.03;4975883;28;20570;-71
2022/04/14 03:38:58;;;;;;;16.47;11.70;;;;;;;11.75;100.00;101894.78;4978888;28;20204;-71
2022/04/14 03:41:24;;;;;;;17.33;10.80;;;;;;;12.27;100.00;101979.25;4981127;28;20194;-71
2022/04/14 03:43:49;;;;;;;15.17;11.37;;;;;;;11.98;100.00;101933.25;4975713;28;20214;-71
2022/04/14 03:46:15;;;;;;;16.87;12.70;;;;;;;11.84;100.00;101936.69;4975371;28;20448;-71
2022/04/14 03:48:44;;;;;;;16.40;13.27;;;;;;;12.51;100.00;102002.38;4978767;28;20185;-72
2022/04/14 03:51:10;;;;;;;16.47;12.63;;;;;;;12.46;100.00;101992.16;4972917;28;20210;-71
2022/04/14 03:53:35;;;;;;;16.57;13.70;;;;;;;12.14;100.00;101971.78;4977899;28;20511;-72
2022/04/14 03:56:01;;;;;;;17.00;12.47;;;;;;;12.27;100.00;102006.97;4978803;28;20181;-71
2022/04/14 03:58:26;;;;;;;18.73;13.27;;;;;;;11.86;100.00;102012.66;4975632;28;20185;-71
2022/04/14 04:00:52;;;;;;;20.43;14.23;;;;;;;12.02;100.00;102010.88;4974163;28;20668;-71
2022/04/14 04:03:17;;;;;;;16.70;12.93;;;;;;;11.80;100.00;101973.00;4975891;28;20220;-71
2022/04/14 04:05:42;;;;;;;16.40;12.77;;;;;;;12.10;100.00;102005.44;4975343;28;20583;-71
2022/04/14 04:08:08;;;;;;;18.90;13.80;;;;;;;11.96;100.00;102007.88;4973761;28;20181;-72
2022/04/14 04:10:33;;;;;;;17.23;12.80;;;;;;;12.01;100.00;101999.28;4974822;28;20193;-72
2022/04/14 04:12:59;;;;;;;16.13;13.20;;;;;;;11.65;100.00;101956.00;4975057;28;20216;-72
2022/04/14 04:15:24;;;;;;;22.70;14.90;;;;;;;12.11;100.00;101999.84;4970983;28;20618;-72
2022/04/14 04:17:53;;;;;;;15.97;12.90;;;;;;;12.16;100.00;101996.63;4977466;28;20194;-72
2022/04/14 04:20:19;;;;;;;15.87;13.27;;;;;;;12.01;100.00;102001.97;4976308;28;20755;-72
2022/04/14 04:22:44;;;;;;;17.20;13.50;;;;;;;12.16;100.00;101999.34;4996287;23;20502;-84
2022/04/14 04:25:10;;;;;;;16.80;13.67;;;;;;;11.89;100.00;101995.31;4991408;28;20200;-86
2022/04/14 04:27:36;;;;;;;18.60;13.63;;;;;;;11.99;100.00;102004.00;4992950;28;20451;-84
2022/04/14 04:30:04;;;;;;;17.87;13.53;;;;;;;11.51;100.00;101992.50;4998720;28;20189;-84
2022/04/14 04:32:33;;;;;;;14.90;13.30;;;;;;;11.37;100.00;101918.91;4990063;28;20563;-85
2022/04/14 04:35:01;;;;;;;19.40;14.47;;;;;;;11.72;100.00;101999.97;4990219;28;20432;-85
2022/04/14 04:37:27;;;;;;;20.37;14.20;;;;;;;11.32;100.00;101899.78;4996749;28;20468;-85
2022/04/14 04:39:52;;;;;;;19.73;13.53;;;;;;;11.69;100.00;102005.69;4996115;28;20546;-85
2022/04/14 04:42:17;;;;;;;14.87;12.40;;;;;;;11.68;100.00;102012.91;4995690;28;20189;-83
2022/04/14 04:44:43;;;;;;;20.37;14.00;;;;;;;11.42;100.00;101982.84;4990187;28;20193;-84
2022/04/14 04:47:08;;;;;;;15.63;13.40;;;;;;;10.91;100.00;101886.59;4994249;28;20671;-82
2022/04/14 04:49:34;;;;;;;17.90;14.17;;;;;;;11.89;100.00;102009.63;4993612;28;20248;-83
2022/04/14 04:52:01;;;;;;;17.60;13.30;;;;;;;11.61;100.00;101995.81;4995588;28;26043;-84
2022/04/14 04:54:27;;;;;;;19.03;13.90;;;;;;;11.73;100.00;101974.75;4986989;28;20326;-82
2022/04/14 04:56:53;;;;;;;19.00;13.67;;;;;;;12.15;100.00;102016.47;4992499;28;21065;-81
2022/04/14 04:59:18;;;;;;;16.53;13.67;;;;;;;11.56;100.00;102022.38;4991150;28;20204;-84
2022/04/14 05:01:44;;;;;;;16.13;14.07;;;;;;;11.44;100.00;101976.28;4996502;28;20445;-83
2022/04/14 05:04:11;;;;;;;19.40;14.30;;;;;;;11.41;100.00;101959.69;4982738;28;20590;-81
2022/04/14 05:06:37;;;;;;;18.20;14.53;;;;;;;11.84;100.00;102027.28;4993839;28;20193;-76
2022/04/14 05:09:02;;;;;;;19.93;15.00;;;;;;;11.90;100.00;102032.78;4997356;28;20448;-78
2022/04/14 05:11:28;;;;;;;18.97;14.73;;;;;;;11.76;100.00;101987.81;5000219;28;20574;-87
2022/04/14 05:13:53;;;;;;;15.47;13.27;;;;;;;11.72;100.00;102014.22;4998012;28;20714;-86
2022/04/14 05:16:19;;;;;;;20.53;15.67;;;;;;;11.77;100.00;102028.00;4992335;28;20217;-87
2022/04/14 05:18:44;;;;;;;18.57;13.80;;;;;;;11.96;100.00;102033.94;4996896;28;20227;-87
2022/04/14 05:21:09;;;;;;;18.20;13.70;;;;;;;11.74;100.00;102038.22;4991239;28;20189;-83
2022/04/14 05:23:35;;;;;;;20.30;15.07;;;;;;;11.29;100.00;101949.31;4995065;28;20978;-84
2022/04/14 05:26:00;;;;;;;19.07;15.07;;;;;;;10.77;100.00;101884.66;4999211;28;20312;-82
2022/04/14 05:28:26;;;;;;;17.70;14.27;;;;;;;10.62;100.00;101868.44;4997104;28;20195;-80
2022/04/14 05:30:51;;;;;;;22.30;15.17;;;;;;;11.71;100.00;102004.47;4994863;28;20223;-83
2022/04/14 05:33:17;;;;;;;17.23;14.37;;;;;;;12.06;100.00;102042.59;4997368;28;20209;-81
2022/04/14 05:35:44;;;;;;;23.97;17.20;;;;;;;10.84;100.00;102062.75;5001617;28;20280;-88
2022/04/14 05:38:10;;;;;;;20.03;16.80;;;;;;;10.74;100.00;102056.75;5002088;28;20689;-89
2022/04/14 05:40:41;;;;;;;23.87;16.97;;;;;;;10.44;100.00;102042.19;5005147;28;20504;-89
2022/04/14 05:43:28;;;;;;;23.67;16.50;;;;;;;10.08;100.00;101978.97;4996234;28;20248;-88
2022/04/14 05:45:59;;;;;;;23.23;16.40;;;;;;;9.94;100.00;102015.31;5012510;28;20473;-90
2022/04/14 05:48:25;;;;;;;21.23;16.73;;;;;;;10.31;100.00;102097.16;4999113;28;20815;-90
2022/04/14 05:50:51;;;;;;;19.97;14.60;;;;;;;10.63;100.00;102074.88;5000553;28;20451;-89
2022/04/14 05:53:17;;;;;;;19.83;15.50;;;;;;;10.58;100.00;102090.63;5002730;28;20462;-90
2022/04/14 05:55:47;;;;;;;21.83;16.47;;;;;;;10.35;100.00;102095.81;5008666;28;20288;-90
2022/04/14 05:58:13;;;;;;;23.37;17.83;;;;;;;10.21;100.00;102100.97;5006858;28;20460;-87
2022/04/14 06:00:40;;;;;;;23.63;17.40;;;;;;;10.16;100.00;102094.28;5009096;28;20490;-91
2022/04/14 06:03:05;;;;;;;34.70;18.63;;;;;;;10.23;100.00;102099.78;5010318;28;20203;-90
2022/04/14 06:05:32;;;;;;;26.30;19.00;;;;;;;10.35;100.00;102105.72;5004597;28;20961;-90
2022/04/14 06:07:58;;;;;;;23.60;17.93;;;;;;;10.14;100.00;102055.22;5010962;28;21128;-90
2022/04/14 06:10:24;;;;;;;26.57;18.97;;;;;;;10.47;100.00;102117.81;5007957;28;20440;-90
2022/04/14 06:12:50;;;;;;;26.40;19.20;;;;;;;10.59;100.00;102112.94;5003443;28;20205;-93
2022/04/14 06:15:16;;;;;;;24.97;18.30;;;;;;;10.75;100.00;102112.09;5006961;28;20451;-90
2022/04/14 06:17:42;;;;;;;27.27;19.67;;;;;;;10.35;100.00;102092.28;5009530;28;20493;-89
2022/04/14 06:20:09;;;;;;;26.23;18.70;;;;;;;10.52;100.00;102095.81;5012680;28;20970;-90
2022/04/14 06:22:38;;;;;;;29.13;18.97;;;;;;;10.70;100.00;102111.75;5008740;28;20902;-90
2022/04/14 06:25:05;;;;;;;20.33;16.93;;;;;;;10.98;100.00;102093.44;5002519;28;20996;-90
2022/04/14 06:27:30;;;;;;;27.53;17.77;;;;;;;10.91;100.00;102082.56;5010536;28;20926;-89
2022/04/14 06:29:56;;;;;;;21.53;17.57;;;;;;;10.39;100.00;101999.78;5007514;28;20440;-92
2022/04/14 06:32:22;;;;;;;20.60;16.40;;;;;;;11.08;100.00;102116.41;5009399;28;20687;-89
2022/04/14 06:34:47;;;;;;;22.77;15.70;;;;;;;10.74;100.00;102064.81;5010323;28;20440;-93
2022/04/14 06:37:12;;;;;;;25.17;18.00;;;;;;;10.57;100.00;102016.53;5011919;28;20208;-92
2022/04/14 06:39:38;;;;;;;20.30;16.37;;;;;;;11.02;100.00;102103.69;5008393;28;20216;-90
2022/04/14 06:42:05;;;;;;;25.20;18.17;;;;;;;10.49;100.00;102034.47;5005108;28;20224;-92
2022/04/14 06:44:30;;;;;;;23.17;18.57;;;;;;;10.80;100.00;102105.22;5004519;28;20223;-90
2022/04/14 06:46:55;;;;;;;22.10;16.47;;;;;;;11.04;100.00;102123.13;4999657;28;20543;-91
2022/04/14 06:49:21;;;;;;;21.30;15.87;;;;;;;10.90;100.00;102090.75;4999755;28;20957;-91
2022/04/14 06:51:46;;;;;;;21.97;16.77;;;;;;;11.20;100.00;102124.13;5008091;28;20223;-92
2022/04/14 06:54:12;;;;;;;27.20;17.90;;;;;;;10.89;100.00;102079.19;5008403;28;20205;-91
2022/04/14 06:56:37;;;;;;;17.53;15.60;;;;;;;11.08;100.00;102092.25;5006531;28;20247;-90
2022/04/14 06:59:02;;;;;;;21.20;16.53;;;;;;;11.12;100.00;102116.06;5006832;28;20621;-91
2022/04/14 07:01:28;;;;;;;22.73;16.33;;;;;;;11.09;100.00;102091.22;5024227;28;20193;-91
2022/04/14 07:03:53;;;;;;;24.27;16.67;;;;;;;10.89;100.00;102064.94;5007121;28;20671;-91
2022/04/14 07:06:18;;;;;;;23.00;16.03;;;;;;;11.22;100.00;102117.53;5014639;28;20280;-89
2022/04/14 07:08:44;;;;;;;20.00;16.20;;;;;;;11.02;100.00;102073.28;5008200;28;20196;-90
2022/04/14 07:11:09;;;;;;;18.33;14.10;;;;;;;11.25;100.00;102114.53;5007706;28;20660;-90
2022/04/14 07:13:35;;;;;;;24.50;14.67;;;;;;;11.29;100.00;102106.97;5004342;28;20209;-90
2022/04/14 07:16:00;;;;;;;19.53;13.90;;;;;;;11.14;100.00;102058.50;5010431;28;20207;-91
2022/04/14 07:18:27;;;;;;;20.10;13.50;;;;;;;11.16;100.00;102043.03;5007210;28;20570;-90
2022/04/14 07:20:52;;;;;;;16.20;13.50;;;;;;;11.75;100.00;102105.28;5008408;28;20181;-91
2022/04/14 07:23:18;;;;;;;17.17;12.77;;;;;;;11.74;100.00;102127.78;5005212;28;20464;-90
2022/04/14 07:25:44;;;;;;;18.13;13.40;;;;;;;11.66;100.00;102090.19;5010566;28;20601;-91
2022/04/14 07:28:10;;;;;;;15.63;13.67;;;;;;;11.32;100.00;102032.25;5001489;28;20193;-87
2022/04/14 07:30:36;;;;;;;16.03;12.13;;;;;;;11.72;100.00;102075.22;5000767;28;20439;-89
2022/04/14 07:33:01;;;;;;;17.93;11.27;;;;;;;12.04;100.00;102092.22;4999066;28;20201;-85
2022/04/14 07:35:26;;;;;;;15.23;11.00;;;;;;;11.54;100.00;102000.22;4994905;28;20193;-84
2022/04/14 07:37:52;;;;;;;14.67;10.90;;;;;;;11.96;100.00;102024.00;4996236;28;20204;-88
2022/04/14 07:40:18;;;;;;;16.33;9.93;;;;;;;12.19;100.00;102034.75;4999571;28;20229;-89
2022/04/14 07:42:45;;;;;;;15.10;11.60;;;;;;;12.59;100.00;102093.81;5002602;28;20205;-89
2022/04/14 07:45:13;;;;;;;13.93;10.33;;;;;;;12.68;100.00;102108.88;4999522;28;20454;-89
2022/04/14 07:47:42;;;;;;;11.77;9.87;;;;;;;12.62;100.00;102098.84;5002023;28;20527;-91
2022/04/14 07:50:21;;;;;;;14.17;11.03;;;;;;;12.33;100.00;102051.16;4996464;28;20436;-90
2022/04/14 07:52:55;;;;;;;13.60;10.63;;;;;;;12.54;100.00;102088.13;5004616;28;20461;-90
2022/04/14 07:55:29;;;;;;;12.23;8.90;;;;;;;12.71;100.00;102051.97;5005325;28;20500;-91
2022/04/14 07:57:57;;;;;;;12.30;10.07;;;;;;;12.69;100.00;102088.16;5013196;28;20444;-90
2022/04/14 08:00:24;;;;;;;10.47;9.10;;;;;;;12.72;100.00;102085.94;5018849;28;20838;-90
2022/04/14 08:02:53;;;;;;;13.33;10.60;;;;;;;12.47;100.00;102026.13;5011956;28;20460;-88
2022/04/14 08:05:20;;;;;;;11.70;9.37;;;;;;;12.45;100.00;101987.81;5001742;28;20450;-88
2022/04/14 08:07:46;;;;;;;10.73;9.50;;;;;;;12.96;100.00;102092.09;5000414;28;20566;-92
2022/04/14 08:10:12;;;;;;;14.73;10.47;;;;;;;12.63;100.00;102063.66;5003266;28;20531;-91
2022/04/14 08:12:37;;;;;;;14.70;9.73;;;;;;;12.60;100.00;102052.41;5002849;28;20298;-91
2022/04/14 08:15:03;;;;;;;12.37;10.10;;;;;;;12.68;100.00;102070.34;5014460;28;20710;-90
2022/04/14 08:17:29;;;;;;;11.03;9.93;;;;;;;12.91;100.00;102099.91;4996372;28;21571;-88
2022/04/14 08:21:06;;;;;;;13.77;9.30;;;;;;;12.94;100.00;102095.00;5068499;27;20590;-76
2022/04/14 08:23:34;;;;;;;13.57;10.10;;;;;;;12.62;100.00;102021.59;5056650;28;20502;-75
2022/04/14 08:26:01;;;;;;;14.30;10.53;;;;;;;13.09;100.00;102084.22;5055751;28;20441;-75
2022/04/14 08:28:27;;;;;;;10.90;9.80;;;;;;;13.16;100.00;102090.53;5063394;28;20432;-76
2022/04/14 08:30:54;;;;;;;13.70;10.80;;;;;;;12.87;100.00;102054.50;5055335;28;20907;-78
2022/04/14 08:33:23;;;;;;;12.00;10.50;;;;;;;13.11;100.00;102085.72;5060994;28;20213;-78
2022/04/14 08:35:49;;;;;;;12.77;11.00;;;;;;;13.06;100.00;102079.22;5061973;28;20829;-77
2022/04/14 08:38:15;;;;;;;14.27;11.20;;;;;;;12.91;100.00;102038.81;5060250;28;20495;-75
2022/04/14 08:40:41;;;;;;;13.83;11.67;;;;;;;13.16;100.00;102095.94;5059227;28;20461;-76
2022/04/14 08:43:09;;;;;;;13.30;10.93;;;;;;;13.13;100.00;102074.75;5062244;28;20213;-78
2022/04/14 08:45:37;;;;;;;11.17;9.90;;;;;;;13.36;100.00;102057.69;5057263;28;20956;-76
2022/04/14 08:48:04;;;;;;;13.83;11.47;;;;;;;13.56;100.00;102089.25;5063450;28;20425;-75
2022/04/14 08:50:31;;;;;;;13.73;11.10;;;;;;;13.48;100.00;102094.78;5064339;28;20548;-75
2022/04/14 08:52:57;;;;;;;16.67;13.07;;;;;;;13.02;100.00;101999.81;5057490;28;20468;-75
2022/04/14 08:55:23;;;;;;;15.90;12.27;;;;;;;13.13;100.00;102020.88;5061639;28;20790;-76
2022/04/14 08:57:49;;;;;;;12.30;10.90;;;;;;;13.40;100.00;102100.25;5060722;28;20446;-76
2022/04/14 09:00:16;;;;;;;15.93;12.90;;;;;;;13.35;100.00;102073.03;5061238;28;20440;-76
2022/04/14 09:02:45;;;;;;;13.80;12.07;;;;;;;13.60;100.00;102087.03;5061915;28;20218;-75
2022/04/14 09:05:11;;;;;;;14.73;11.70;;;;;;;13.76;100.00;102088.66;5059557;28;20866;-75
2022/04/14 09:07:38;;;;;;;12.73;11.33;;;;;;;13.64;100.00;102063.22;5061409;28;20442;-75
2022/04/14 09:10:05;;;;;;;12.40;10.70;;;;;;;13.62;100.00;102052.63;5049519;28;20465;-76
2022/04/14 09:12:30;;;;;;;12.90;11.50;;;;;;;13.68;100.00;102088.78;5043782;28;20465;-72
2022/04/14 09:14:56;;;;;;;14.50;12.10;;;;;;;13.61;100.00;102029.38;5045404;28;20519;-72
2022/04/14 09:17:21;;;;;;;16.40;12.47;;;;;;;13.89;100.00;102056.47;5044450;28;20221;-79
2022/04/14 09:19:48;;;;;;;22.10;13.40;;;;;;;13.40;100.00;102013.19;5048690;28;20195;-77
2022/04/14 09:22:15;;;;;;;15.20;13.00;;;;;;;13.73;100.00;102037.81;5053017;28;20190;-77
2022/04/14 09:24:49;;;;;;;14.10;12.03;;;;;;;14.17;100.00;102078.09;5050674;28;20445;-75
2022/04/14 09:27:31;;;;;;;16.77;12.23;;;;;;;14.33;100.00;102079.72;5056917;28;20866;-75
2022/04/14 09:30:00;;;;;;;15.10;12.47;;;;;;;14.28;100.00;102047.09;5043085;28;20457;-75
2022/04/14 09:32:33;;;;;;;13.33;11.67;;;;;;;14.51;100.00;102087.38;5039986;28;20493;-77
2022/04/14 09:35:02;;;;;;;14.53;11.93;;;;;;;14.43;100.00;102088.31;5027784;28;20434;-73
2022/04/14 09:37:27;;;;;;;68.80;15.20;;;;;;;14.46;100.00;102092.50;5036716;28;20869;-71
2022/04/14 09:40:01;;;;;;;25.30;12.53;;;;;;;14.36;100.00;102087.44;5035483;28;20450;-73
2022/04/14 09:42:33;;;;;;;15.67;13.57;;;;;;;13.93;100.00;102014.59;5042072;28;20228;-71
2022/04/14 09:45:20;;;;;;;14.23;12.77;;;;;;;14.58;100.00;102087.44;5041327;28;20449;-70
2022/04/14 09:47:48;;;;;;;16.00;14.07;;;;;;;14.39;100.00;102075.44;5034905;28;20437;-71
2022/04/14 09:50:24;;;;;;;15.93;14.23;;;;;;;14.45;100.00;102085.44;5039865;28;20549;-71
2022/04/14 09:53:18;;;;;;;18.00;14.20;;;;;;;14.87;100.00;102089.16;5037934;28;20974;-72
2022/04/14 09:55:50;;;;;;;16.63;14.30;;;;;;;14.67;100.00;102078.19;5036317;28;20512;-74
2022/04/14 09:58:18;;;;;;;16.47;14.67;;;;;;;14.25;100.00;102029.41;5041958;28;20446;-73
2022/04/14 10:00:51;;;;;;;18.43;14.63;;;;;;;14.57;100.00;102091.19;5045940;28;20474;-73
2022/04/14 10:03:21;;;;;;;16.70;13.90;;;;;;;14.60;100.00;102085.38;5038988;28;20499;-73
2022/04/14 10:05:49;;;;;;;14.97;13.37;;;;;;;14.81;100.00;102090.78;5040645;28;20442;-72
2022/04/14 10:08:16;;;;;;;16.33;13.83;;;;;;;14.77;100.00;102084.06;5044847;28;21045;-73
2022/04/14 10:10:47;;;;;;;17.60;13.47;;;;;;;14.56;100.00;102065.22;5042734;28;20518;-72
2022/04/14 10:13:18;;;;;;;13.33;11.37;;;;;;;14.90;100.00;102105.78;5044743;28;20473;-72
2022/04/14 10:15:48;;;;;;;15.67;13.30;;;;;;;14.99;100.00;102103.78;5045564;28;20926;-72
2022/04/14 10:18:16;;;;;;;18.30;14.60;;;;;;;14.88;100.00;102105.16;5046600;28;20512;-72
2022/04/14 10:20:44;;;;;;;21.80;13.27;;;;;;;14.96;100.00;102117.69;5038541;28;20450;-71
2022/04/14 10:23:11;;;;;;;15.03;13.00;;;;;;;15.00;100.00;102104.59;5043436;23;20928;-75
2022/04/14 10:25:37;;;;;;;11.83;10.43;;;;;;;15.47;100.00;102105.72;4975226;28;20452;-74
2022/04/14 10:28:05;;;;;;;14.10;11.63;;;;;;;15.20;100.00;102102.03;4976426;28;20444;-75
2022/04/14 10:30:31;;;;;;;14.67;13.20;;;;;;;15.13;100.00;102110.94;4978397;28;20468;-74
2022/04/14 10:32:57;;;;;;;13.37;11.97;;;;;;;15.08;100.00;102110.69;4976962;28;20465;-74
2022/04/14 10:35:28;;;;;;;14.23;12.50;;;;;;;15.21;100.00;102101.81;4975660;28;20192;-74
2022/04/14 10:38:15;;;;;;;15.00;12.17;;;;;;;15.35;100.00;102103.56;4973618;28;20460;-74
2022/04/14 10:41:02;;;;;;;12.60;10.33;;;;;;;15.57;100.00;102112.44;4978307;28;20436;-74
2022/04/14 10:43:29;;;;;;;12.90;10.37;;;;;;;15.24;100.00;102109.53;4978778;28;20524;-74
2022/04/14 10:45:56;;;;;;;14.80;11.37;;;;;;;15.12;100.00;102108.41;4977208;28;20440;-74
2022/04/14 10:48:32;;;;;;;12.27;11.10;;;;;;;15.38;100.00;102122.09;4980769;28;20457;-73
2022/04/14 10:51:36;;;;;;;12.93;10.93;;;;;;;15.31;100.00;102109.59;4979321;28;20825;-73
2022/04/14 10:54:08;;;;;;;18.70;10.90;;;;;;;15.11;100.00;102117.56;4969340;28;20567;-74
2022/04/14 10:56:33;;;;;;;9.85;8.85;;;;;;;15.24;100.00;102116.81;4976913;28;21035;-75
2022/04/14 10:59:03;;;;;;;14.63;10.30;;;;;;;15.52;100.00;102117.59;4969816;28;20194;-73
2022/04/14 11:01:47;;;;;;;11.53;9.23;;;;;;;15.70;100.00;102113.53;4974448;28;20198;-75
2022/04/14 11:04:41;;;;;;;11.60;9.33;;;;;;;15.60;100.00;102103.09;4988896;28;20657;-75
2022/04/14 11:07:17;;;;;;;9.73;8.60;;;;;;;15.40;100.00;102121.91;4972261;28;21004;-74
2022/04/14 11:09:48;;;;;;;15.30;10.40;;;;;;;15.36;100.00;102115.22;4981913;28;20532;-74